Flight Track Log - Related Links

Times and Time Zones

All times are in EDT time to prevent confusion due to time zone crossing. See the FFT346 flight status page for this flight to view local times or setup timezone preferences in your user account.


Time Position Orientation Groundspeed Altitude Reporting Facility
EDT Latitude Longitude Course Direction KTS MPH feet Rate Location/Type
Tue 09:47:30 AM 36.0769 -115.1119 93° East 169 194 3,100  Level Los Angeles Center
Tue 09:48:03 AM 36.0758 -115.0864 93° East 159 183 3,900 1,636 Climbing Los Angeles Center
Tue 09:48:36 AM 36.0775 -115.0453 87° East 192 221 4,900 1,377 Climbing Los Angeles Center
Tue 09:49:04 AM 36.0772 -115.0194 91° East 182 209 5,300 2,090 Climbing Los Angeles Center
Tue 09:50:05 AM 36.0803 -114.9231 88° East 265 305 8,000 2,537 Climbing Los Angeles Center
Tue 09:51:07 AM 36.0969 -114.8242 78° East 292 336 10,500 2,000 Climbing Los Angeles Center
Tue 09:52:20 AM 36.1211 -114.6825 78° East 347 399 12,500 2,311 Climbing Los Angeles Center
Tue 09:53:22 AM 36.1469 -114.5269 78° East 380 437 15,700 2,683 Climbing Los Angeles Center
Tue 09:54:23 AM 36.1694 -114.3936 78° East 392 451 18,000 1,902 Climbing Los Angeles Center
Tue 09:55:25 AM 36.1919 -114.2544 79° East 406 467 19,600 1,610 Climbing Los Angeles Center
Tue 09:56:26 AM 36.2100 -114.1058 81° East 428 493 21,300 1,805 Climbing Los Angeles Center
Tue 09:57:28 AM 36.2286 -113.9506 82° East 448 516 23,300 1,707 Climbing Los Angeles Center
Tue 09:58:29 AM 36.2497 -113.7911 81° East 463 533 24,800 1,463 Climbing Los Angeles Center
Tue 09:59:31 AM 36.3094 -113.6469 63° Northeast 467 537 26,300 1,561 Climbing Los Angeles Center
Tue 10:00:32 AM 36.3778 -113.4675 65° Northeast 477 549 28,000 1,415 Climbing Los Angeles Center
Tue 10:01:34 AM 36.4358 -113.3156 65° Northeast 484 557 29,200 1,220 Climbing Los Angeles Center
Tue 10:02:35 AM 36.4911 -113.1756 64° Northeast 492 566 30,500 1,415 Climbing Los Angeles Center
Tue 10:03:37 AM 36.5503 -113.0214 64° Northeast 495 570 32,100 1,512 Climbing Los Angeles Center
Tue 10:04:38 AM 36.6094 -112.8672 64° Northeast 496 571 33,600 1,366 Climbing Los Angeles Center
Tue 10:05:40 AM 36.6794 -112.6833 65° Northeast 494 568 34,900 683 Climbing Los Angeles Center
Tue 10:06:41 AM 36.7361 -112.5294 65° Northeast 493 567 35,000 49 Climbing Los Angeles Center
Tue 10:07:43 AM 36.7933 -112.3775 65° Northeast 489 563 35,000  Level Los Angeles Center
Tue 10:08:45 AM 36.8511 -112.2228 65° Northeast 493 567 35,000  Level Los Angeles Center
Tue 10:09:46 AM 36.9097 -112.0653 65° Northeast 499 574 35,000  Level Los Angeles Center
Tue 10:10:19 AM 36.9458 -111.9692 65° Northeast 504 580 35,000  Level Denver Center
Tue 10:11:20 AM 37.0053 -111.8111 65° Northeast 505 581 35,000  Level Denver Center
Tue 10:12:22 AM 37.0639 -111.6525 65° Northeast 506 582 35,000  Level Denver Center
Tue 10:13:23 AM 37.1211 -111.4944 66° East 504 580 35,000  Level Denver Center
Tue 10:14:25 AM 37.1889 -111.3069 66° East 497 572 35,000  Level Denver Center
Tue 10:15:26 AM 37.2453 -111.1492 66° East 497 572 35,000  Level Denver Center
Tue 10:16:28 AM 37.3019 -110.9914 66° East 500 575 35,000  Level Denver Center
Tue 10:17:29 AM 37.3597 -110.8314 66° East 504 580 35,000 49 Level Denver Center
Tue 10:18:31 AM 37.4153 -110.6719 66° East 501 577 35,100  Climbing Denver Center
Tue 10:19:32 AM 37.4808 -110.4894 66° East 503 579 35,000 -49 Descending Denver Center
Tue 10:20:34 AM 37.5336 -110.3358 67° East 499 574 35,000  Level Denver Center
Tue 10:21:36 AM 37.5869 -110.1833 66° East 497 572 35,000  Level Denver Center
Tue 10:22:37 AM 37.6486 -110.0064 66° East 492 566 35,000  Level Denver Center
Tue 10:23:39 AM 37.7014 -109.8533 66° East 496 571 35,000  Level Denver Center
Tue 10:24:41 AM 37.7636 -109.6753 66° East 496 571 35,000  Level Denver Center
Tue 10:25:42 AM 37.8164 -109.5178 67° East 507 583 35,000 49 Level Denver Center
Tue 10:26:44 AM 37.8711 -109.3594 66° East 511 588 35,100  Climbing Denver Center
Tue 10:27:45 AM 37.9339 -109.1728 67° East 514 592 35,000  Descending Denver Center
Tue 10:28:47 AM 37.9864 -109.0175 67° East 504 580 35,100  Climbing Denver Center
Tue 10:29:49 AM 38.0481 -108.8328 67° East 507 583 35,000 -49 Descending Denver Center
Tue 10:30:50 AM 38.0961 -108.6858 67° East 505 581 35,000  Level Denver Center
Tue 10:31:52 AM 38.1561 -108.5019 67° East 505 581 35,000 -176 Level Denver Center
Tue 10:33:06 AM 38.2083 -108.3458 67° East 504 580 34,600 -533 Descending Denver Center
Tue 10:34:07 AM 38.2689 -108.1594 67° East 511 588 33,800 -774 Descending Denver Center
Tue 10:35:10 AM 38.3372 -107.9519 67° East 500 575 33,000 -387 Descending Denver Center
Tue 10:36:11 AM 38.3878 -107.7942 68° East 503 579 33,000  Level Denver Center
Tue 10:37:13 AM 38.4381 -107.6378 68° East 501 577 33,000  Level Denver Center
Tue 10:38:15 AM 38.5111 -107.4636 62° Northeast 499 574 33,000  Level Denver Center
Tue 10:39:17 AM 38.5767 -107.3156 60° Northeast 501 577 33,000  Level Denver Center
Tue 10:40:18 AM 38.6456 -107.1619 60° Northeast 501 577 33,000  Level Denver Center
Tue 10:41:20 AM 38.7136 -107.0097 60° Northeast 494 568 33,000  Level Denver Center
Tue 10:42:22 AM 38.7956 -106.8233 61° Northeast 499 574 33,000 -629 Level Denver Center
Tue 10:43:24 AM 38.8650 -106.6658 60° Northeast 508 585 31,700 -1,839 Descending Denver Center
Tue 10:44:26 AM 38.9436 -106.4953 59° Northeast 515 593 29,200 -2,226 Descending Denver Center
Tue 10:45:28 AM 39.0133 -106.3447 59° Northeast 514 592 27,100 -1,805 Descending Denver Center
Tue 10:46:29 AM 39.0692 -106.2222 60° Northeast 505 581 25,500 -1,887 Descending Denver Center
Tue 10:47:32 AM 39.1497 -106.0400 60° Northeast 478 550 23,200 -2,016 Descending Denver Center
Tue 10:48:34 AM 39.2125 -105.8975 60° Northeast 457 526 21,300 -1,887 Descending Denver Center
Tue 10:49:36 AM 39.2811 -105.7403 61° Northeast 430 495 19,300 -1,561 Descending Denver Center
Tue 10:50:37 AM 39.3369 -105.6133 60° Northeast 408 470 18,100 -927 Descending Denver Center
Tue 10:51:39 AM 39.3894 -105.4925 61° Northeast 388 447 17,400 -919 Descending Denver Center
Tue 10:52:41 AM 39.4006 -105.3686 83° East 352 405 16,200 -1,161 Descending Denver Center
Tue 10:53:43 AM 39.3864 -105.2425 98° East 341 392 15,000 -1,113 Descending Denver Center
Tue 10:54:45 AM 39.3581 -105.1353 109° East 322 371 13,900 -968 Descending Denver Center
Tue 10:55:47 AM 39.3281 -105.0297 110° East 318 366 13,000 -435 Descending Denver Center
Tue 10:56:49 AM 39.3264 -104.9256 91° East 264 304 13,000 -339 Level Denver Center
Tue 10:57:51 AM 39.3367 -104.8528 80° East 248 285 12,300 -794 Descending Denver Center
Tue 10:59:05 AM 39.3711 -104.7608 64° Northeast 240 276 11,200 -1,015 Descending Denver Center
Tue 11:00:07 AM 39.4344 -104.7133 30° Northeast 212 244 10,000 -581 Descending Denver Center
Tue 11:01:09 AM 39.4858 -104.6756 30° Northeast 214 246 10,000  Level Denver Center
Tue 11:02:11 AM 39.5417 -104.6633 10° North 190 219 10,000  Level Denver Center
Tue 11:03:13 AM 39.5936 -104.6636 360° North 189 217 10,000 -387 Level Denver Center
Tue 11:04:15 AM 39.6494 -104.6631 360° North 187 215 9,200 -919 Descending Denver Center
Tue 11:05:17 AM 39.7011 -104.6622 North 187 215 8,100 -1,056 Descending Denver Center
Tue 11:06:20 AM 39.7556 -104.6617 360° North 184 212 7,000 -912 Descending Denver Center
Tue 11:07:22 AM 39.7953 -104.6614 360° North 147 169 6,200 -774 Descending Denver Center
Tue 11:08:24 AM 39.8344 -104.6617 360° North 133 153 5,400 -774 Descending Denver Center

Login

Don't have an account? Register now (free) for customized features, flight alerts, and more!